sensor_id;sensor_type;location;lat;lon;timestamp;P1;durP1;ratioP1;P2;durP2;ratioP2
32812;SDS011;19162;48.254;11.454;2022-08-19T00:01:04;7.55;;;7.05;;
32812;SDS011;19162;48.254;11.454;2022-08-19T00:04:05;7.57;;;6.97;;
32812;SDS011;19162;48.254;11.454;2022-08-19T00:07:06;7.53;;;6.83;;
32812;SDS011;19162;48.254;11.454;2022-08-19T00:10:07;8.13;;;5.88;;
32812;SDS011;19162;48.254;11.454;2022-08-19T00:13:07;7.15;;;6.55;;
32812;SDS011;19162;48.254;11.454;2022-08-19T00:16:08;7.73;;;6.40;;
32812;SDS011;19162;48.254;11.454;2022-08-19T00:19:08;6.63;;;6.10;;
32812;SDS011;19162;48.254;11.454;2022-08-19T00:22:09;6.72;;;6.22;;
32812;SDS011;19162;48.254;11.454;2022-08-19T00:25:09;7.65;;;6.68;;
32812;SDS011;19162;48.254;11.454;2022-08-19T00:28:10;6.40;;;6.00;;
32812;SDS011;19162;48.254;11.454;2022-08-19T00:31:10;6.78;;;6.28;;
32812;SDS011;19162;48.254;11.454;2022-08-19T00:34:12;7.20;;;6.70;;
32812;SDS011;19162;48.254;11.454;2022-08-19T00:37:12;6.72;;;6.22;;
32812;SDS011;19162;48.254;11.454;2022-08-19T00:40:12;7.60;;;6.97;;
32812;SDS011;19162;48.254;11.454;2022-08-19T00:43:13;7.20;;;6.70;;
32812;SDS011;19162;48.254;11.454;2022-08-19T00:46:18;8.50;;;7.72;;
32812;SDS011;19162;48.254;11.454;2022-08-19T00:49:20;8.65;;;8.05;;
32812;SDS011;19162;48.254;11.454;2022-08-19T00:52:24;8.65;;;7.95;;
32812;SDS011;19162;48.254;11.454;2022-08-19T00:55:25;7.45;;;6.85;;
32812;SDS011;19162;48.254;11.454;2022-08-19T00:58:26;8.30;;;7.57;;
32812;SDS011;19162;48.254;11.454;2022-08-19T01:01:27;8.25;;;7.65;;
32812;SDS011;19162;48.254;11.454;2022-08-19T01:04:27;9.15;;;8.45;;
32812;SDS011;19162;48.254;11.454;2022-08-19T01:07:27;10.07;;;9.38;;
32812;SDS011;19162;48.254;11.454;2022-08-19T01:10:29;9.83;;;9.13;;
32812;SDS011;19162;48.254;11.454;2022-08-19T01:13:32;10.60;;;9.70;;
32812;SDS011;19162;48.254;11.454;2022-08-19T01:16:32;9.73;;;9.02;;
32812;SDS011;19162;48.254;11.454;2022-08-19T01:19:35;10.00;;;9.30;;
32812;SDS011;19162;48.254;11.454;2022-08-19T01:22:49;10.88;;;10.13;;
32812;SDS011;19162;48.254;11.454;2022-08-19T01:25:51;10.10;;;9.40;;
32812;SDS011;19162;48.254;11.454;2022-08-19T01:28:53;10.68;;;9.98;;
32812;SDS011;19162;48.254;11.454;2022-08-19T01:31:53;11.40;;;10.60;;
32812;SDS011;19162;48.254;11.454;2022-08-19T01:34:54;10.20;;;9.40;;
32812;SDS011;19162;48.254;11.454;2022-08-19T01:37:55;11.60;;;10.68;;
32812;SDS011;19162;48.254;11.454;2022-08-19T01:40:56;11.77;;;10.98;;
32812;SDS011;19162;48.254;11.454;2022-08-19T01:43:56;10.77;;;9.98;;
32812;SDS011;19162;48.254;11.454;2022-08-19T01:46:56;11.57;;;10.77;;
32812;SDS011;19162;48.254;11.454;2022-08-19T01:49:57;11.90;;;11.10;;
32812;SDS011;19162;48.254;11.454;2022-08-19T01:52:58;11.05;;;10.20;;
32812;SDS011;19162;48.254;11.454;2022-08-19T01:55:59;8.93;;;8.30;;
32812;SDS011;19162;48.254;11.454;2022-08-19T01:59:02;11.88;;;10.98;;
32812;SDS011;19162;48.254;11.454;2022-08-19T02:02:04;11.90;;;11.02;;
32812;SDS011;19162;48.254;11.454;2022-08-19T02:05:07;12.13;;;11.10;;
32812;SDS011;19162;48.254;11.454;2022-08-19T02:08:08;11.25;;;10.35;;
32812;SDS011;19162;48.254;11.454;2022-08-19T02:11:08;10.90;;;10.00;;
32812;SDS011;19162;48.254;11.454;2022-08-19T02:14:17;11.27;;;10.48;;
32812;SDS011;19162;48.254;11.454;2022-08-19T02:17:17;12.52;;;11.63;;
32812;SDS011;19162;48.254;11.454;2022-08-19T02:20:18;11.18;;;10.38;;
32812;SDS011;19162;48.254;11.454;2022-08-19T02:23:18;12.25;;;11.35;;
32812;SDS011;19162;48.254;11.454;2022-08-19T02:26:18;12.48;;;11.50;;
32812;SDS011;19162;48.254;11.454;2022-08-19T02:29:19;11.30;;;10.55;;
32812;SDS011;19162;48.254;11.454;2022-08-19T02:32:19;12.00;;;10.98;;
32812;SDS011;19162;48.254;11.454;2022-08-19T02:35:20;11.57;;;10.65;;
32812;SDS011;19162;48.254;11.454;2022-08-19T02:38:20;11.52;;;10.63;;
32812;SDS011;19162;48.254;11.454;2022-08-19T02:41:27;12.80;;;11.98;;
32812;SDS011;19162;48.254;11.454;2022-08-19T02:44:28;10.45;;;9.65;;
32812;SDS011;19162;48.254;11.454;2022-08-19T02:47:28;13.27;;;12.07;;
32812;SDS011;19162;48.254;11.454;2022-08-19T02:50:29;12.57;;;11.48;;
32812;SDS011;19162;48.254;11.454;2022-08-19T02:53:29;12.57;;;11.67;;
32812;SDS011;19162;48.254;11.454;2022-08-19T02:56:29;11.93;;;11.13;;
32812;SDS011;19162;48.254;11.454;2022-08-19T02:59:30;11.77;;;10.95;;
32812;SDS011;19162;48.254;11.454;2022-08-19T03:02:31;11.98;;;11.07;;
32812;SDS011;19162;48.254;11.454;2022-08-19T03:05:31;11.32;;;10.43;;
32812;SDS011;19162;48.254;11.454;2022-08-19T03:08:31;11.88;;;10.98;;
32812;SDS011;19162;48.254;11.454;2022-08-19T03:11:32;12.33;;;11.43;;
32812;SDS011;19162;48.254;11.454;2022-08-19T03:14:33;12.35;;;11.23;;
32812;SDS011;19162;48.254;11.454;2022-08-19T03:17:34;12.20;;;11.30;;
32812;SDS011;19162;48.254;11.454;2022-08-19T03:20:39;12.18;;;11.35;;
32812;SDS011;19162;48.254;11.454;2022-08-19T03:23:39;12.25;;;11.35;;
32812;SDS011;19162;48.254;11.454;2022-08-19T03:26:41;12.37;;;11.47;;
32812;SDS011;19162;48.254;11.454;2022-08-19T03:29:41;12.63;;;11.73;;
32812;SDS011;19162;48.254;11.454;2022-08-19T03:32:41;12.95;;;12.05;;
32812;SDS011;19162;48.254;11.454;2022-08-19T03:35:41;12.55;;;11.55;;
32812;SDS011;19162;48.254;11.454;2022-08-19T03:38:45;12.77;;;11.88;;
32812;SDS011;19162;48.254;11.454;2022-08-19T03:41:47;11.88;;;10.88;;
32812;SDS011;19162;48.254;11.454;2022-08-19T03:44:48;13.18;;;11.95;;
32812;SDS011;19162;48.254;11.454;2022-08-19T03:47:49;13.90;;;12.83;;
32812;SDS011;19162;48.254;11.454;2022-08-19T03:50:49;13.27;;;12.17;;
32812;SDS011;19162;48.254;11.454;2022-08-19T03:53:50;13.55;;;12.55;;
32812;SDS011;19162;48.254;11.454;2022-08-19T03:56:51;13.35;;;12.45;;
32812;SDS011;19162;48.254;11.454;2022-08-19T03:59:51;13.40;;;12.40;;
32812;SDS011;19162;48.254;11.454;2022-08-19T04:02:52;14.75;;;13.65;;
32812;SDS011;19162;48.254;11.454;2022-08-19T04:05:52;13.83;;;12.80;;
32812;SDS011;19162;48.254;11.454;2022-08-19T04:08:54;13.45;;;12.45;;
32812;SDS011;19162;48.254;11.454;2022-08-19T04:11:55;14.55;;;13.25;;
32812;SDS011;19162;48.254;11.454;2022-08-19T04:14:55;14.00;;;12.90;;
32812;SDS011;19162;48.254;11.454;2022-08-19T04:17:55;15.40;;;14.20;;
32812;SDS011;19162;48.254;11.454;2022-08-19T04:20:56;14.57;;;13.52;;
32812;SDS011;19162;48.254;11.454;2022-08-19T04:23:56;15.63;;;14.43;;
32812;SDS011;19162;48.254;11.454;2022-08-19T04:26:58;15.57;;;14.37;;
32812;SDS011;19162;48.254;11.454;2022-08-19T04:29:58;14.23;;;13.03;;
32812;SDS011;19162;48.254;11.454;2022-08-19T04:32:59;15.60;;;13.90;;
32812;SDS011;19162;48.254;11.454;2022-08-19T04:35:59;15.50;;;14.17;;
32812;SDS011;19162;48.254;11.454;2022-08-19T04:39:01;15.02;;;13.93;;
32812;SDS011;19162;48.254;11.454;2022-08-19T04:42:02;15.73;;;14.63;;
32812;SDS011;19162;48.254;11.454;2022-08-19T04:45:20;14.93;;;13.73;;
32812;SDS011;19162;48.254;11.454;2022-08-19T04:48:21;15.40;;;14.10;;
32812;SDS011;19162;48.254;11.454;2022-08-19T04:51:26;14.30;;;13.18;;
32812;SDS011;19162;48.254;11.454;2022-08-19T04:54:26;14.20;;;13.20;;
32812;SDS011;19162;48.254;11.454;2022-08-19T04:57:26;12.93;;;11.93;;
32812;SDS011;19162;48.254;11.454;2022-08-19T05:00:26;14.73;;;13.73;;
32812;SDS011;19162;48.254;11.454;2022-08-19T05:03:27;14.73;;;13.52;;
32812;SDS011;19162;48.254;11.454;2022-08-19T05:06:33;15.80;;;14.57;;
32812;SDS011;19162;48.254;11.454;2022-08-19T05:09:33;14.60;;;13.50;;
32812;SDS011;19162;48.254;11.454;2022-08-19T05:12:35;15.98;;;14.68;;
32812;SDS011;19162;48.254;11.454;2022-08-19T05:15:35;14.70;;;13.50;;
32812;SDS011;19162;48.254;11.454;2022-08-19T05:18:36;14.13;;;13.07;;
32812;SDS011;19162;48.254;11.454;2022-08-19T05:21:54;16.35;;;14.93;;
32812;SDS011;19162;48.254;11.454;2022-08-19T05:25:15;15.40;;;14.20;;
32812;SDS011;19162;48.254;11.454;2022-08-19T05:28:19;15.32;;;14.20;;
32812;SDS011;19162;48.254;11.454;2022-08-19T05:31:19;16.58;;;15.20;;
32812;SDS011;19162;48.254;11.454;2022-08-19T05:34:19;14.60;;;13.50;;
32812;SDS011;19162;48.254;11.454;2022-08-19T05:37:21;15.52;;;14.32;;
32812;SDS011;19162;48.254;11.454;2022-08-19T05:40:22;14.80;;;13.60;;
32812;SDS011;19162;48.254;11.454;2022-08-19T05:43:22;15.45;;;14.05;;
32812;SDS011;19162;48.254;11.454;2022-08-19T05:46:23;14.57;;;13.38;;
32812;SDS011;19162;48.254;11.454;2022-08-19T05:49:24;16.55;;;15.25;;
32812;SDS011;19162;48.254;11.454;2022-08-19T05:52:25;15.97;;;14.57;;
32812;SDS011;19162;48.254;11.454;2022-08-19T05:55:27;16.48;;;15.13;;
32812;SDS011;19162;48.254;11.454;2022-08-19T05:58:27;15.65;;;14.35;;
32812;SDS011;19162;48.254;11.454;2022-08-19T06:01:27;16.30;;;14.93;;
32812;SDS011;19162;48.254;11.454;2022-08-19T06:04:27;16.37;;;15.07;;
32812;SDS011;19162;48.254;11.454;2022-08-19T06:07:28;16.38;;;15.07;;
32812;SDS011;19162;48.254;11.454;2022-08-19T06:10:28;17.67;;;16.27;;
32812;SDS011;19162;48.254;11.454;2022-08-19T06:13:30;20.58;;;19.08;;
32812;SDS011;19162;48.254;11.454;2022-08-19T06:16:30;20.47;;;18.87;;
32812;SDS011;19162;48.254;11.454;2022-08-19T06:19:31;22.63;;;20.83;;
32812;SDS011;19162;48.254;11.454;2022-08-19T06:22:31;23.53;;;21.53;;
32812;SDS011;19162;48.254;11.454;2022-08-19T06:25:37;21.00;;;19.27;;
32812;SDS011;19162;48.254;11.454;2022-08-19T06:28:39;22.70;;;20.80;;
32812;SDS011;19162;48.254;11.454;2022-08-19T06:31:44;24.75;;;22.80;;
32812;SDS011;19162;48.254;11.454;2022-08-19T06:34:44;25.50;;;23.20;;
32812;SDS011;19162;48.254;11.454;2022-08-19T06:37:45;20.70;;;19.10;;
32812;SDS011;19162;48.254;11.454;2022-08-19T06:40:45;24.60;;;22.60;;
32812;SDS011;19162;48.254;11.454;2022-08-19T06:43:45;24.95;;;22.70;;
32812;SDS011;19162;48.254;11.454;2022-08-19T06:46:46;23.38;;;21.48;;
32812;SDS011;19162;48.254;11.454;2022-08-19T06:49:47;24.42;;;22.42;;
32812;SDS011;19162;48.254;11.454;2022-08-19T06:52:47;24.95;;;22.85;;
32812;SDS011;19162;48.254;11.454;2022-08-19T06:55:48;25.23;;;23.17;;
32812;SDS011;19162;48.254;11.454;2022-08-19T06:58:54;17.73;;;16.10;;
32812;SDS011;19162;48.254;11.454;2022-08-19T07:01:56;12.57;;;11.68;;
32812;SDS011;19162;48.254;11.454;2022-08-19T07:04:56;25.02;;;22.98;;
32812;SDS011;19162;48.254;11.454;2022-08-19T07:08:02;25.80;;;23.85;;
32812;SDS011;19162;48.254;11.454;2022-08-19T07:11:05;26.42;;;24.13;;
32812;SDS011;19162;48.254;11.454;2022-08-19T07:14:06;27.48;;;25.08;;
32812;SDS011;19162;48.254;11.454;2022-08-19T07:17:08;26.80;;;24.40;;
32812;SDS011;19162;48.254;11.454;2022-08-19T07:20:09;25.92;;;23.83;;
32812;SDS011;19162;48.254;11.454;2022-08-19T07:23:09;24.02;;;22.13;;
32812;SDS011;19162;48.254;11.454;2022-08-19T07:26:11;25.53;;;23.57;;
32812;SDS011;19162;48.254;11.454;2022-08-19T07:29:12;24.23;;;22.20;;
32812;SDS011;19162;48.254;11.454;2022-08-19T07:32:12;24.80;;;22.60;;
32812;SDS011;19162;48.254;11.454;2022-08-19T07:35:13;26.83;;;24.50;;
32812;SDS011;19162;48.254;11.454;2022-08-19T07:38:13;25.10;;;23.10;;
32812;SDS011;19162;48.254;11.454;2022-08-19T07:41:16;24.63;;;22.63;;
32812;SDS011;19162;48.254;11.454;2022-08-19T07:44:17;25.90;;;23.90;;
32812;SDS011;19162;48.254;11.454;2022-08-19T07:47:17;28.65;;;26.40;;
32812;SDS011;19162;48.254;11.454;2022-08-19T07:50:18;28.02;;;25.83;;
32812;SDS011;19162;48.254;11.454;2022-08-19T07:53:19;29.33;;;26.92;;
32812;SDS011;19162;48.254;11.454;2022-08-19T07:56:20;14.57;;;13.40;;
32812;SDS011;19162;48.254;11.454;2022-08-19T07:59:21;32.45;;;29.73;;
32812;SDS011;19162;48.254;11.454;2022-08-19T08:02:22;32.28;;;29.58;;
32812;SDS011;19162;48.254;11.454;2022-08-19T08:05:23;32.20;;;29.48;;
32812;SDS011;19162;48.254;11.454;2022-08-19T08:08:41;31.58;;;28.88;;
32812;SDS011;19162;48.254;11.454;2022-08-19T08:12:14;33.30;;;30.38;;
32812;SDS011;19162;48.254;11.454;2022-08-19T08:15:15;14.63;;;13.32;;
32812;SDS011;19162;48.254;11.454;2022-08-19T08:18:16;15.13;;;13.68;;
32812;SDS011;19162;48.254;11.454;2022-08-19T08:21:17;27.13;;;24.95;;
32812;SDS011;19162;48.254;11.454;2022-08-19T08:24:18;26.83;;;24.73;;
32812;SDS011;19162;48.254;11.454;2022-08-19T08:27:18;24.58;;;22.58;;
32812;SDS011;19162;48.254;11.454;2022-08-19T08:30:19;22.73;;;21.03;;
32812;SDS011;19162;48.254;11.454;2022-08-19T08:33:23;23.42;;;21.55;;
32812;SDS011;19162;48.254;11.454;2022-08-19T08:36:24;20.55;;;18.95;;
32812;SDS011;19162;48.254;11.454;2022-08-19T08:39:25;16.55;;;15.25;;
32812;SDS011;19162;48.254;11.454;2022-08-19T08:42:30;16.83;;;15.63;;
32812;SDS011;19162;48.254;11.454;2022-08-19T08:45:32;17.02;;;15.73;;
32812;SDS011;19162;48.254;11.454;2022-08-19T08:48:39;20.42;;;18.90;;
32812;SDS011;19162;48.254;11.454;2022-08-19T08:51:43;19.08;;;17.58;;
32812;SDS011;19162;48.254;11.454;2022-08-19T08:54:46;20.40;;;18.80;;
32812;SDS011;19162;48.254;11.454;2022-08-19T09:00:47;19.60;;;18.10;;
32812;SDS011;19162;48.254;11.454;2022-08-19T09:03:48;19.48;;;17.98;;
32812;SDS011;19162;48.254;11.454;2022-08-19T09:06:55;20.10;;;18.63;;
32812;SDS011;19162;48.254;11.454;2022-08-19T09:10:10;21.95;;;20.35;;
32812;SDS011;19162;48.254;11.454;2022-08-19T09:16:19;19.87;;;18.27;;
32812;SDS011;19162;48.254;11.454;2022-08-19T09:19:20;18.95;;;17.35;;
32812;SDS011;19162;48.254;11.454;2022-08-19T09:22:21;19.90;;;18.50;;
32812;SDS011;19162;48.254;11.454;2022-08-19T09:25:22;18.05;;;16.63;;
32812;SDS011;19162;48.254;11.454;2022-08-19T09:28:22;17.52;;;16.23;;
32812;SDS011;19162;48.254;11.454;2022-08-19T09:31:23;16.97;;;15.77;;
32812;SDS011;19162;48.254;11.454;2022-08-19T09:34:25;19.38;;;17.67;;
32812;SDS011;19162;48.254;11.454;2022-08-19T09:37:25;22.20;;;20.38;;
32812;SDS011;19162;48.254;11.454;2022-08-19T09:40:29;22.10;;;20.33;;
32812;SDS011;19162;48.254;11.454;2022-08-19T09:43:30;23.95;;;21.95;;
32812;SDS011;19162;48.254;11.454;2022-08-19T09:46:31;21.52;;;19.63;;
32812;SDS011;19162;48.254;11.454;2022-08-19T09:49:31;22.75;;;20.95;;
32812;SDS011;19162;48.254;11.454;2022-08-19T09:52:31;21.20;;;19.57;;
32812;SDS011;19162;48.254;11.454;2022-08-19T09:55:31;22.25;;;20.55;;
32812;SDS011;19162;48.254;11.454;2022-08-19T09:58:32;21.60;;;19.90;;
32812;SDS011;19162;48.254;11.454;2022-08-19T10:01:33;22.10;;;20.45;;
32812;SDS011;19162;48.254;11.454;2022-08-19T10:04:33;22.52;;;20.60;;
32812;SDS011;19162;48.254;11.454;2022-08-19T10:07:52;32.58;;;29.83;;
32812;SDS011;19162;48.254;11.454;2022-08-19T10:10:53;29.95;;;27.42;;
32812;SDS011;19162;48.254;11.454;2022-08-19T10:13:53;31.07;;;28.47;;
32812;SDS011;19162;48.254;11.454;2022-08-19T10:16:53;28.50;;;26.27;;
32812;SDS011;19162;48.254;11.454;2022-08-19T10:19:53;20.80;;;19.20;;
32812;SDS011;19162;48.254;11.454;2022-08-19T10:22:54;26.70;;;24.52;;
32812;SDS011;19162;48.254;11.454;2022-08-19T10:25:54;26.40;;;24.30;;
32812;SDS011;19162;48.254;11.454;2022-08-19T10:28:54;9.73;;;9.03;;
32812;SDS011;19162;48.254;11.454;2022-08-19T10:31:55;15.15;;;13.95;;
32812;SDS011;19162;48.254;11.454;2022-08-19T10:34:57;29.88;;;27.30;;
32812;SDS011;19162;48.254;11.454;2022-08-19T10:37:58;26.48;;;24.17;;
32812;SDS011;19162;48.254;11.454;2022-08-19T10:41:09;23.25;;;21.35;;
32812;SDS011;19162;48.254;11.454;2022-08-19T10:44:11;21.98;;;20.15;;
32812;SDS011;19162;48.254;11.454;2022-08-19T10:47:12;24.55;;;22.55;;
32812;SDS011;19162;48.254;11.454;2022-08-19T10:50:12;24.10;;;21.93;;
32812;SDS011;19162;48.254;11.454;2022-08-19T10:53:31;21.55;;;19.75;;
32812;SDS011;19162;48.254;11.454;2022-08-19T10:56:32;19.80;;;18.20;;
32812;SDS011;19162;48.254;11.454;2022-08-19T10:59:51;18.55;;;17.05;;
32812;SDS011;19162;48.254;11.454;2022-08-19T11:02:51;17.65;;;16.15;;
32812;SDS011;19162;48.254;11.454;2022-08-19T11:05:58;14.60;;;13.40;;
32812;SDS011;19162;48.254;11.454;2022-08-19T11:08:58;11.65;;;10.65;;
32812;SDS011;19162;48.254;11.454;2022-08-19T11:11:59;9.30;;;8.60;;
32812;SDS011;19162;48.254;11.454;2022-08-19T11:15:00;7.33;;;6.67;;
32812;SDS011;19162;48.254;11.454;2022-08-19T11:18:00;6.17;;;5.67;;
32812;SDS011;19162;48.254;11.454;2022-08-19T11:21:07;5.47;;;5.07;;
32812;SDS011;19162;48.254;11.454;2022-08-19T11:24:09;4.93;;;4.53;;
32812;SDS011;19162;48.254;11.454;2022-08-19T11:27:10;4.55;;;4.25;;
32812;SDS011;19162;48.254;11.454;2022-08-19T11:30:11;3.97;;;3.67;;
32812;SDS011;19162;48.254;11.454;2022-08-19T11:33:11;4.15;;;3.85;;
32812;SDS011;19162;48.254;11.454;2022-08-19T11:36:12;4.00;;;3.70;;
32812;SDS011;19162;48.254;11.454;2022-08-19T11:39:13;4.13;;;3.83;;
32812;SDS011;19162;48.254;11.454;2022-08-19T11:42:13;3.22;;;3.03;;
32812;SDS011;19162;48.254;11.454;2022-08-19T11:45:32;3.75;;;3.45;;
32812;SDS011;19162;48.254;11.454;2022-08-19T11:48:32;2.63;;;2.47;;
32812;SDS011;19162;48.254;11.454;2022-08-19T11:51:33;2.58;;;2.38;;
32812;SDS011;19162;48.254;11.454;2022-08-19T11:54:33;1.80;;;1.70;;
32812;SDS011;19162;48.254;11.454;2022-08-19T11:57:33;2.60;;;2.40;;
32812;SDS011;19162;48.254;11.454;2022-08-19T12:00:34;1.42;;;1.33;;
32812;SDS011;19162;48.254;11.454;2022-08-19T12:03:36;3.25;;;1.70;;
32812;SDS011;19162;48.254;11.454;2022-08-19T12:06:42;1.83;;;1.73;;
32812;SDS011;19162;48.254;11.454;2022-08-19T12:09:43;2.03;;;1.92;;
32812;SDS011;19162;48.254;11.454;2022-08-19T12:12:43;1.88;;;1.77;;
32812;SDS011;19162;48.254;11.454;2022-08-19T12:15:46;2.28;;;2.08;;
32812;SDS011;19162;48.254;11.454;2022-08-19T12:18:47;1.95;;;1.85;;
32812;SDS011;19162;48.254;11.454;2022-08-19T12:21:47;1.58;;;1.48;;
32812;SDS011;19162;48.254;11.454;2022-08-19T12:24:47;1.42;;;1.33;;
32812;SDS011;19162;48.254;11.454;2022-08-19T12:27:50;1.48;;;1.38;;
32812;SDS011;19162;48.254;11.454;2022-08-19T12:30:50;1.50;;;1.40;;
32812;SDS011;19162;48.254;11.454;2022-08-19T12:33:51;1.48;;;1.38;;
32812;SDS011;19162;48.254;11.454;2022-08-19T12:36:52;1.27;;;1.10;;
32812;SDS011;19162;48.254;11.454;2022-08-19T12:39:52;1.55;;;1.45;;
32812;SDS011;19162;48.254;11.454;2022-08-19T12:42:53;2.30;;;2.07;;
32812;SDS011;19162;48.254;11.454;2022-08-19T12:45:53;1.50;;;1.40;;
32812;SDS011;19162;48.254;11.454;2022-08-19T12:48:53;1.70;;;1.60;;
32812;SDS011;19162;48.254;11.454;2022-08-19T12:51:54;2.67;;;1.42;;
32812;SDS011;19162;48.254;11.454;2022-08-19T12:54:55;1.90;;;1.80;;
32812;SDS011;19162;48.254;11.454;2022-08-19T12:57:56;1.50;;;1.40;;
32812;SDS011;19162;48.254;11.454;2022-08-19T13:00:56;2.17;;;2.03;;
32812;SDS011;19162;48.254;11.454;2022-08-19T13:03:56;2.70;;;2.50;;
32812;SDS011;19162;48.254;11.454;2022-08-19T13:06:57;3.00;;;2.80;;
32812;SDS011;19162;48.254;11.454;2022-08-19T13:09:57;3.10;;;2.90;;
32812;SDS011;19162;48.254;11.454;2022-08-19T13:12:57;3.23;;;3.03;;
32812;SDS011;19162;48.254;11.454;2022-08-19T13:16:00;3.03;;;2.83;;
32812;SDS011;19162;48.254;11.454;2022-08-19T13:19:01;3.50;;;3.30;;
32812;SDS011;19162;48.254;11.454;2022-08-19T13:22:04;3.05;;;2.85;;
32812;SDS011;19162;48.254;11.454;2022-08-19T13:25:05;3.25;;;3.05;;
32812;SDS011;19162;48.254;11.454;2022-08-19T13:28:05;3.70;;;3.50;;
32812;SDS011;19162;48.254;11.454;2022-08-19T13:31:06;4.15;;;3.85;;
32812;SDS011;19162;48.254;11.454;2022-08-19T13:34:27;4.00;;;3.60;;
32812;SDS011;19162;48.254;11.454;2022-08-19T13:40:43;3.55;;;3.33;;
32812;SDS011;19162;48.254;11.454;2022-08-19T13:43:43;3.20;;;3.00;;
32812;SDS011;19162;48.254;11.454;2022-08-19T13:46:44;3.50;;;3.20;;
32812;SDS011;19162;48.254;11.454;2022-08-19T13:49:44;3.53;;;3.33;;
32812;SDS011;19162;48.254;11.454;2022-08-19T13:52:45;3.63;;;3.33;;
32812;SDS011;19162;48.254;11.454;2022-08-19T13:55:45;3.17;;;2.88;;
32812;SDS011;19162;48.254;11.454;2022-08-19T13:58:46;3.22;;;3.03;;
32812;SDS011;19162;48.254;11.454;2022-08-19T14:01:46;3.37;;;3.17;;
32812;SDS011;19162;48.254;11.454;2022-08-19T14:04:46;3.67;;;3.37;;
32812;SDS011;19162;48.254;11.454;2022-08-19T14:07:47;3.58;;;3.35;;
32812;SDS011;19162;48.254;11.454;2022-08-19T14:10:48;3.42;;;3.22;;
32812;SDS011;19162;48.254;11.454;2022-08-19T14:13:48;3.78;;;3.58;;
32812;SDS011;19162;48.254;11.454;2022-08-19T14:16:49;4.25;;;3.95;;
32812;SDS011;19162;48.254;11.454;2022-08-19T14:19:49;3.83;;;3.57;;
32812;SDS011;19162;48.254;11.454;2022-08-19T14:22:49;3.55;;;3.35;;
32812;SDS011;19162;48.254;11.454;2022-08-19T14:25:49;4.32;;;4.03;;
32812;SDS011;19162;48.254;11.454;2022-08-19T14:28:49;4.60;;;4.30;;
32812;SDS011;19162;48.254;11.454;2022-08-19T14:31:50;5.03;;;4.63;;
32812;SDS011;19162;48.254;11.454;2022-08-19T14:34:50;4.85;;;4.55;;
32812;SDS011;19162;48.254;11.454;2022-08-19T14:37:51;5.55;;;5.05;;
32812;SDS011;19162;48.254;11.454;2022-08-19T14:40:55;5.88;;;5.38;;
32812;SDS011;19162;48.254;11.454;2022-08-19T14:43:57;6.75;;;6.25;;
32812;SDS011;19162;48.254;11.454;2022-08-19T14:46:57;6.65;;;6.15;;
32812;SDS011;19162;48.254;11.454;2022-08-19T14:49:57;7.25;;;6.75;;
32812;SDS011;19162;48.254;11.454;2022-08-19T14:53:01;9.18;;;8.27;;
32812;SDS011;19162;48.254;11.454;2022-08-19T14:56:09;8.63;;;8.07;;
32812;SDS011;19162;48.254;11.454;2022-08-19T14:59:10;10.00;;;9.30;;
32812;SDS011;19162;48.254;11.454;2022-08-19T15:02:10;11.43;;;10.63;;
32812;SDS011;19162;48.254;11.454;2022-08-19T15:05:11;11.25;;;10.45;;
32812;SDS011;19162;48.254;11.454;2022-08-19T15:08:12;11.38;;;10.57;;
32812;SDS011;19162;48.254;11.454;2022-08-19T15:11:13;11.00;;;10.15;;
32812;SDS011;19162;48.254;11.454;2022-08-19T15:14:15;11.10;;;10.23;;
32812;SDS011;19162;48.254;11.454;2022-08-19T15:17:15;11.25;;;10.35;;
32812;SDS011;19162;48.254;11.454;2022-08-19T15:20:17;10.90;;;10.13;;
32812;SDS011;19162;48.254;11.454;2022-08-19T15:23:18;10.65;;;9.88;;
32812;SDS011;19162;48.254;11.454;2022-08-19T15:26:19;10.15;;;9.40;;
32812;SDS011;19162;48.254;11.454;2022-08-19T15:29:19;10.02;;;9.32;;
32812;SDS011;19162;48.254;11.454;2022-08-19T15:32:20;10.95;;;10.10;;
32812;SDS011;19162;48.254;11.454;2022-08-19T15:35:22;11.05;;;10.15;;
32812;SDS011;19162;48.254;11.454;2022-08-19T15:38:22;11.20;;;10.38;;
32812;SDS011;19162;48.254;11.454;2022-08-19T15:41:24;10.80;;;10.00;;
32812;SDS011;19162;48.254;11.454;2022-08-19T15:44:24;11.23;;;10.30;;
32812;SDS011;19162;48.254;11.454;2022-08-19T15:47:25;9.98;;;9.27;;
32812;SDS011;19162;48.254;11.454;2022-08-19T15:50:28;10.60;;;9.80;;
32812;SDS011;19162;48.254;11.454;2022-08-19T15:53:30;9.98;;;9.23;;
32812;SDS011;19162;48.254;11.454;2022-08-19T15:56:31;11.03;;;10.23;;
32812;SDS011;19162;48.254;11.454;2022-08-19T15:59:51;10.50;;;9.70;;
32812;SDS011;19162;48.254;11.454;2022-08-19T16:03:11;9.68;;;8.98;;
32812;SDS011;19162;48.254;11.454;2022-08-19T16:06:31;10.07;;;9.30;;
32812;SDS011;19162;48.254;11.454;2022-08-19T16:09:31;10.50;;;9.70;;
32812;SDS011;19162;48.254;11.454;2022-08-19T16:12:33;10.00;;;9.30;;
32812;SDS011;19162;48.254;11.454;2022-08-19T16:15:33;10.47;;;9.67;;
32812;SDS011;19162;48.254;11.454;2022-08-19T16:18:34;10.55;;;9.75;;
32812;SDS011;19162;48.254;11.454;2022-08-19T16:21:37;10.80;;;9.77;;
32812;SDS011;19162;48.254;11.454;2022-08-19T16:24:38;9.50;;;8.90;;
32812;SDS011;19162;48.254;11.454;2022-08-19T16:27:39;10.50;;;9.80;;
32812;SDS011;19162;48.254;11.454;2022-08-19T16:30:40;11.50;;;10.60;;
32812;SDS011;19162;48.254;11.454;2022-08-19T16:33:40;11.35;;;10.55;;
32812;SDS011;19162;48.254;11.454;2022-08-19T16:36:41;12.18;;;11.32;;
32812;SDS011;19162;48.254;11.454;2022-08-19T16:39:42;11.93;;;11.00;;
32812;SDS011;19162;48.254;11.454;2022-08-19T16:42:42;11.70;;;10.90;;
32812;SDS011;19162;48.254;11.454;2022-08-19T16:45:43;11.45;;;10.65;;
32812;SDS011;19162;48.254;11.454;2022-08-19T16:48:43;11.30;;;10.50;;
32812;SDS011;19162;48.254;11.454;2022-08-19T16:51:44;10.75;;;9.95;;
32812;SDS011;19162;48.254;11.454;2022-08-19T16:54:45;11.02;;;10.23;;
32812;SDS011;19162;48.254;11.454;2022-08-19T16:57:46;10.10;;;9.30;;
32812;SDS011;19162;48.254;11.454;2022-08-19T17:00:46;9.15;;;8.45;;
32812;SDS011;19162;48.254;11.454;2022-08-19T17:03:48;8.20;;;7.63;;
32812;SDS011;19162;48.254;11.454;2022-08-19T17:06:50;7.35;;;6.75;;
32812;SDS011;19162;48.254;11.454;2022-08-19T17:09:51;6.95;;;6.45;;
32812;SDS011;19162;48.254;11.454;2022-08-19T17:12:51;6.00;;;5.53;;
32812;SDS011;19162;48.254;11.454;2022-08-19T17:15:52;5.18;;;4.78;;
32812;SDS011;19162;48.254;11.454;2022-08-19T17:18:54;4.40;;;4.10;;
32812;SDS011;19162;48.254;11.454;2022-08-19T17:21:54;4.65;;;4.25;;
32812;SDS011;19162;48.254;11.454;2022-08-19T17:24:56;4.10;;;3.78;;
32812;SDS011;19162;48.254;11.454;2022-08-19T17:27:57;3.90;;;3.50;;
32812;SDS011;19162;48.254;11.454;2022-08-19T17:30:57;3.65;;;3.45;;
32812;SDS011;19162;48.254;11.454;2022-08-19T17:33:58;3.10;;;2.90;;
32812;SDS011;19162;48.254;11.454;2022-08-19T17:36:59;3.33;;;3.13;;
32812;SDS011;19162;48.254;11.454;2022-08-19T17:40:00;4.25;;;3.95;;
32812;SDS011;19162;48.254;11.454;2022-08-19T17:43:01;4.45;;;4.05;;
32812;SDS011;19162;48.254;11.454;2022-08-19T17:46:02;3.83;;;3.63;;
32812;SDS011;19162;48.254;11.454;2022-08-19T17:49:09;4.68;;;4.40;;